Time;durP1;ratioP1;P1;durP2;ratioP2;P2;SDS_P1;SDS_P2;PMS_P1;PMS_P2;Temp;Humidity;BMP_temperature;BMP_pressure;BME280_temperature;BME280_humidity;BME280_pressure;Samples;Min_cycle;Max_cycle;Signal;HPM_P1;HPM_P2
2022/06/12 00:02:43;;;;;;;12.48;6.47;;;15.10;99.90;;;;;;5102766;28;20518;-87
2022/06/12 00:05:37;;;;;;;9.90;5.90;;;15.00;99.90;;;;;;5102310;28;20071;-88
2022/06/12 00:08:29;;;;;;;11.73;5.63;;;15.00;99.90;;;;;;5104329;28;20445;-88
2022/06/12 00:11:20;;;;;;;9.13;5.38;;;15.00;99.90;;;;;;5093736;28;20453;-88
2022/06/12 00:14:07;;;;;;;9.73;5.70;;;15.10;99.90;;;;;;5089086;28;20069;-88
2022/06/12 00:16:55;;;;;;;8.55;5.72;;;15.20;99.90;;;;;;5093862;28;20089;-87
2022/06/12 00:19:44;;;;;;;10.05;5.60;;;15.10;99.90;;;;;;5075841;28;20151;-86
2022/06/12 00:22:34;;;;;;;12.60;5.75;;;15.10;99.90;;;;;;5096179;28;20052;-85
2022/06/12 00:25:25;;;;;;;8.38;5.13;;;15.10;99.90;;;;;;5096302;28;20525;-88
2022/06/12 00:28:12;;;;;;;7.20;5.15;;;15.00;99.90;;;;;;5094112;28;20467;-88
2022/06/12 00:31:00;;;;;;;9.13;6.00;;;14.90;99.90;;;;;;5091025;28;20040;-88
2022/06/12 00:33:49;;;;;;;9.40;6.10;;;14.80;99.90;;;;;;5091863;28;20043;-89
2022/06/12 00:36:37;;;;;;;8.35;6.28;;;14.80;99.90;;;;;;5090319;28;20068;-87
2022/06/12 00:39:25;;;;;;;8.57;5.78;;;14.80;99.90;;;;;;5093772;28;20048;-86
2022/06/12 00:42:26;;;;;;;9.57;5.80;;;14.80;99.90;;;;;;5092407;28;20047;-88
2022/06/12 00:45:49;;;;;;;7.65;6.03;;;14.80;99.90;;;;;;5096984;28;20035;-86
2022/06/12 00:48:37;;;;;;;;;;;14.80;99.90;;;;;;5092142;28;20044;-86
2022/06/12 00:51:25;;;;;;;10.20;6.32;;;14.70;99.90;;;;;;5098381;28;19936;-87
2022/06/12 00:54:15;;;;;;;12.13;6.80;;;14.60;99.90;;;;;;5095865;28;20119;-88
2022/06/12 00:57:03;;;;;;;11.88;6.32;;;14.60;99.90;;;;;;5085345;28;20048;-86
2022/06/12 00:59:58;;;;;;;10.98;6.85;;;14.50;99.90;;;;;;5099023;28;20107;-87
2022/06/12 01:02:46;;;;;;;10.70;6.40;;;14.50;99.90;;;;;;5093785;28;20069;-89
2022/06/12 01:08:40;;;;;;;8.73;5.78;;;14.50;99.90;;;;;;5090608;28;20048;-86
2022/06/12 01:11:30;;;;;;;10.57;5.38;;;14.40;99.90;;;;;;5084429;28;20045;-87
2022/06/12 01:14:21;;;;;;;10.60;6.70;;;14.40;99.90;;;;;;5086835;28;20149;-87
2022/06/12 01:17:10;;;;;;;11.57;5.70;;;14.30;99.90;;;;;;5086898;28;20040;-87
2022/06/12 01:20:00;;;;;;;9.73;6.13;;;14.30;99.90;;;;;;5089142;28;20096;-88
2022/06/12 01:23:25;;;;;;;8.25;5.80;;;14.30;99.90;;;;;;5082235;28;20181;-86
2022/06/12 01:26:21;;;;;;;10.80;6.25;;;14.30;99.90;;;;;;5087020;28;20444;-88
2022/06/12 01:29:30;;;;;;;9.25;6.05;;;14.20;99.90;;;;;;5087078;28;20530;-87
2022/06/12 01:32:29;;;;;;;12.80;7.63;;;14.30;99.90;;;;;;5095263;28;20051;-87
2022/06/12 01:35:44;;;;;;;9.45;7.40;;;14.30;99.90;;;;;;5086921;28;20048;-86
2022/06/12 01:38:41;;;;;;;11.25;7.15;;;14.20;99.90;;;;;;5073363;28;20136;-87
2022/06/12 01:41:28;;;;;;;10.27;7.00;;;14.20;99.90;;;;;;5096449;28;20074;-87
2022/06/12 01:44:34;;;;;;;13.65;7.07;;;14.10;99.90;;;;;;5072611;28;20337;-88
2022/06/12 01:47:46;;;;;;;11.50;6.20;;;14.00;99.90;;;;;;5090611;28;20133;-87
2022/06/12 01:50:39;;;;;;;9.75;6.50;;;13.90;99.90;;;;;;5093580;28;20124;-88
2022/06/12 01:53:48;;;;;;;11.35;6.70;;;13.80;99.90;;;;;;5085111;28;20131;-87
2022/06/12 01:56:48;;;;;;;10.48;6.30;;;13.70;99.90;;;;;;5084238;28;20472;-86
2022/06/12 01:59:54;;;;;;;11.55;7.13;;;13.70;99.90;;;;;;5083716;28;20040;-86
2022/06/12 02:02:51;;;;;;;9.88;6.63;;;13.60;99.90;;;;;;5070772;28;20101;-89
2022/06/12 02:06:09;;;;;;;10.02;6.57;;;13.60;99.90;;;;;;5091382;28;20044;-89
2022/06/12 02:09:06;;;;;;;9.02;6.45;;;13.60;99.90;;;;;;5083756;28;20040;-89
2022/06/12 02:15:09;;;;;;;9.18;6.72;;;13.50;99.90;;;;;;5092874;28;20426;-87
2022/06/12 02:18:23;;;;;;;9.93;6.50;;;13.40;99.90;;;;;;5081366;28;20149;-88
2022/06/12 02:21:37;;;;;;;8.77;6.85;;;13.40;99.90;;;;;;5093757;28;20036;-87
2022/06/12 02:24:33;;;;;;;10.13;6.90;;;13.40;99.90;;;;;;5087349;28;20055;-86
2022/06/12 02:27:44;;;;;;;9.15;6.75;;;13.40;99.90;;;;;;5075526;28;20499;-88
2022/06/12 02:30:38;;;;;;;12.45;7.03;;;13.40;99.90;;;;;;5093565;28;20055;-91
2022/06/12 02:33:34;;;;;;;8.38;6.32;;;13.50;99.90;;;;;;5099398;28;20044;-88
2022/06/12 02:36:25;;;;;;;10.00;6.90;;;13.70;99.90;;;;;;5102087;28;20078;-89
2022/06/12 02:39:25;;;;;;;14.75;7.43;;;13.70;99.90;;;;;;5073290;28;20039;-86
2022/06/12 02:42:23;;;;;;;14.10;7.65;;;13.70;99.90;;;;;;5074855;28;20128;-88
2022/06/12 02:45:15;;;;;;;12.13;6.18;;;13.60;99.90;;;;;;5089031;28;20040;-88
2022/06/12 02:48:05;;;;;;;12.65;7.05;;;13.60;99.90;;;;;;5091789;28;20051;-87
2022/06/12 02:51:10;;;;;;;11.35;6.60;;;13.70;99.90;;;;;;5090832;28;20411;-86
2022/06/12 02:54:22;;;;;;;10.30;6.75;;;13.70;99.90;;;;;;5091222;28;20059;-87
2022/06/12 02:57:27;;;;;;;6.72;5.65;;;13.80;99.90;;;;;;5092532;28;20052;-87
2022/06/12 03:00:22;;;;;;;8.65;6.45;;;13.80;99.90;;;;;;5093350;28;20410;-88
2022/06/12 03:03:27;;;;;;;11.45;6.80;;;13.80;99.90;;;;;;5090606;28;20471;-88
2022/06/12 03:06:18;;;;;;;10.75;7.35;;;13.70;99.90;;;;;;5092727;28;20054;-89
2022/06/12 03:09:09;;;;;;;15.70;6.68;;;13.70;99.90;;;;;;5081756;28;20079;-88
2022/06/12 03:11:56;;;;;;;12.85;6.90;;;13.60;99.90;;;;;;5088347;28;20127;-87
2022/06/12 03:14:44;;;;;;;9.18;6.68;;;13.60;99.90;;;;;;5092453;28;20040;-88
2022/06/12 03:17:31;;;;;;;9.05;6.50;;;13.50;99.90;;;;;;5095174;28;20136;-88
2022/06/12 03:20:24;;;;;;;8.00;6.93;;;13.50;99.90;;;;;;5088189;28;20501;-88
2022/06/12 03:23:27;;;;;;;9.57;7.10;;;13.50;99.90;;;;;;5107188;28;20101;-88
2022/06/12 03:26:21;;;;;;;9.52;6.88;;;13.50;99.90;;;;;;5101456;28;20105;-86
2022/06/12 03:29:37;;;;;;;13.35;6.75;;;13.60;99.90;;;;;;5094095;28;20048;-88
2022/06/12 03:32:36;;;;;;;11.27;7.40;;;13.60;99.90;;;;;;5077647;28;20067;-90
2022/06/12 03:35:54;;;;;;;7.05;5.95;;;13.60;99.90;;;;;;5095840;28;20149;-88
2022/06/12 03:38:52;;;;;;;10.30;5.95;;;13.60;99.90;;;;;;5093431;28;20044;-88
2022/06/12 03:41:45;;;;;;;9.00;6.20;;;13.60;99.90;;;;;;5077678;28;20052;-87
2022/06/12 03:44:41;;;;;;;14.05;6.93;;;13.60;99.90;;;;;;5090523;28;20052;-88
2022/06/12 03:47:52;;;;;;;15.55;7.38;;;13.50;99.90;;;;;;5090647;28;20048;-86
2022/06/12 03:50:51;;;;;;;14.77;6.82;;;13.40;99.90;;;;;;5092632;28;20082;-88
2022/06/12 03:53:53;;;;;;;13.20;7.25;;;13.40;99.90;;;;;;5095134;28;20729;-88
2022/06/12 04:00:17;;;;;;;8.88;6.97;;;13.30;99.90;;;;;;5096597;28;20063;-87
2022/06/12 04:07:16;;;;;;;12.45;6.35;;;13.30;99.90;;;;;;5087887;28;20035;-88
2022/06/12 04:10:04;;;;;;;16.60;7.63;;;13.40;99.90;;;;;;5089845;28;20036;-85
2022/06/12 04:12:54;;;;;;;13.25;6.97;;;13.40;99.90;;;;;;5094139;28;20058;-90
2022/06/12 04:16:29;;;;;;;11.10;6.90;;;13.40;99.90;;;;;;5089333;28;20114;-89
2022/06/12 04:19:21;;;;;;;10.13;6.53;;;13.50;99.90;;;;;;5093812;28;20047;-88
2022/06/12 04:22:15;;;;;;;9.67;7.10;;;13.60;99.90;;;;;;5098371;28;20095;-88
2022/06/12 04:25:28;;;;;;;10.75;6.45;;;13.80;99.90;;;;;;5098742;28;20493;-89
2022/06/12 04:28:33;;;;;;;13.90;6.35;;;14.00;99.90;;;;;;5086269;28;20044;-90
2022/06/12 04:31:22;;;;;;;7.68;6.30;;;14.10;99.90;;;;;;5094926;28;20205;-90
2022/06/12 04:34:22;;;;;;;13.68;6.80;;;14.30;99.90;;;;;;5081255;28;20639;-88
2022/06/12 04:37:15;;;;;;;10.38;6.25;;;14.40;99.90;;;;;;5097872;28;20143;-88
2022/06/12 04:40:05;;;;;;;11.60;6.00;;;14.50;99.90;;;;;;5098560;28;20040;-89
2022/06/12 04:42:53;;;;;;;16.13;6.40;;;14.60;99.90;;;;;;5105978;28;20052;-85
2022/06/12 04:45:41;;;;;;;8.85;5.68;;;14.70;99.90;;;;;;5105149;28;20113;-86
2022/06/12 04:48:42;;;;;;;10.20;5.85;;;14.80;99.90;;;;;;5102172;28;20040;-84
2022/06/12 04:51:32;;;;;;;7.93;5.50;;;14.90;99.90;;;;;;5109318;28;20036;-80
2022/06/12 04:54:21;;;;;;;7.13;5.47;;;15.00;99.90;;;;;;5107739;28;20068;-79
2022/06/12 04:57:09;;;;;;;11.18;5.22;;;15.10;99.90;;;;;;5095611;28;20111;-91
2022/06/12 04:59:57;;;;;;;8.32;5.75;;;15.20;99.90;;;;;;5107655;28;20179;-90
2022/06/12 05:12:18;;;;;;;7.57;5.55;;;15.60;99.90;;;;;;5700780;22;20433;-89
2022/06/12 05:26:20;;;;;;;7.53;4.35;;;16.20;99.90;;;;;;5571190;22;20116;-87
2022/06/12 05:29:14;;;;;;;7.15;4.82;;;16.40;99.90;;;;;;5056802;28;20049;-90
2022/06/12 05:32:03;;;;;;;8.43;4.40;;;16.40;99.90;;;;;;5074247;28;20071;-82
2022/06/12 05:34:52;;;;;;;9.45;4.75;;;16.50;99.90;;;;;;5057341;28;20044;-84
2022/06/12 05:37:42;;;;;;;7.80;4.50;;;16.50;99.90;;;;;;5063025;28;20048;-82
2022/06/12 05:40:32;;;;;;;12.13;5.85;;;16.60;99.90;;;;;;5052722;28;20075;-91
2022/06/12 05:43:19;;;;;;;5.78;4.45;;;16.80;99.90;;;;;;5070062;28;20170;-86
2022/06/12 05:46:08;;;;;;;8.90;4.55;;;16.90;99.90;;;;;;5073503;28;20067;-86
2022/06/12 05:48:56;;;;;;;12.02;4.50;;;17.00;99.90;;;;;;5057944;28;20116;-87
2022/06/12 05:51:43;;;;;;;7.57;4.20;;;17.20;99.90;;;;;;5071616;28;20055;-86
2022/06/12 05:54:33;;;;;;;7.10;5.13;;;17.30;99.90;;;;;;5072755;28;20048;-88
2022/06/12 05:57:20;;;;;;;7.55;4.40;;;17.50;99.90;;;;;;5067705;28;20033;-84
2022/06/12 06:00:15;;;;;;;9.98;4.43;;;17.60;99.90;;;;;;5060803;28;20113;-85
2022/06/12 06:03:05;;;;;;;7.22;4.63;;;17.70;99.90;;;;;;5070137;28;20037;-86
2022/06/12 06:05:53;;;;;;;5.95;4.45;;;17.80;99.90;;;;;;5072553;28;20128;-85
2022/06/12 06:08:40;;;;;;;7.65;4.30;;;17.90;99.90;;;;;;5044578;28;20048;-86
2022/06/12 06:11:45;;;;;;;8.25;4.03;;;18.00;99.90;;;;;;5071811;28;20075;-86
2022/06/12 06:14:33;;;;;;;7.75;3.90;;;18.20;99.90;;;;;;5063037;28;20041;-85
2022/06/12 06:17:27;;;;;;;6.00;3.67;;;18.40;99.90;;;;;;5068009;28;20108;-84
2022/06/12 06:20:18;;;;;;;5.28;3.38;;;18.60;99.90;;;;;;5067877;28;20535;-87
2022/06/12 06:23:07;;;;;;;8.80;3.65;;;18.90;99.90;;;;;;5071491;28;20047;-87
2022/06/12 06:25:56;;;;;;;6.30;3.75;;;19.20;99.90;;;;;;5069303;28;20146;-85
2022/06/12 06:28:48;;;;;;;8.75;4.03;;;19.50;99.90;;;;;;5071569;28;20067;-87
2022/06/12 06:31:36;;;;;;;6.75;3.00;;;19.70;99.90;;;;;;5071386;28;20102;-89
2022/06/12 06:34:23;;;;;;;4.25;2.92;;;19.90;99.90;;;;;;5073349;28;20041;-89
2022/06/12 06:37:12;;;;;;;3.40;2.65;;;20.20;99.90;;;;;;5072658;28;20139;-86
2022/06/12 06:40:02;;;;;;;5.38;3.08;;;20.50;99.90;;;;;;5075067;28;20105;-86
2022/06/12 06:42:49;;;;;;;8.40;3.30;;;20.70;99.90;;;;;;5070401;28;20044;-88
2022/06/12 06:48:44;;;;;;;6.07;3.03;;;21.30;99.90;;;;;;5080701;28;20498;-90
2022/06/12 06:51:36;;;;;;;5.88;2.78;;;21.60;99.90;;;;;;5073970;28;20243;-89
2022/06/12 06:54:23;;;;;;;3.60;2.55;;;21.90;99.90;;;;;;5065981;28;20040;-89
2022/06/12 06:57:11;;;;;;;3.17;2.45;;;22.40;99.90;;;;;;5066749;28;20033;-92
2022/06/12 07:00:18;;;;;;;5.25;2.47;;;22.60;99.90;;;;;;5068627;28;20047;-91
2022/06/12 07:03:06;;;;;;;3.78;2.60;;;23.00;99.90;;;;;;5074650;28;20047;-91
2022/06/12 07:05:57;;;;;;;4.55;2.85;;;23.10;99.90;;;;;;5069082;28;20037;-89
2022/06/12 07:08:45;;;;;;;6.10;3.00;;;23.30;99.90;;;;;;5079720;28;20040;-89
2022/06/12 07:11:33;;;;;;;4.95;2.40;;;23.20;99.90;;;;;;5077912;28;20072;-91
2022/06/12 07:14:25;;;;;;;3.83;2.22;;;23.70;99.90;;;;;;5062798;28;20037;-91
2022/06/12 07:17:17;;;;;;;5.35;2.25;;;24.50;98.40;;;;;;5060216;28;20109;-89
2022/06/12 07:20:08;;;;;;;3.08;1.85;;;25.20;97.80;;;;;;5075963;28;20076;-90
2022/06/12 07:22:59;;;;;;;5.50;2.30;;;26.00;97.10;;;;;;5069208;28;20153;-90
2022/06/12 07:26:04;;;;;;;2.88;1.85;;;26.70;94.00;;;;;;5093790;28;20045;-92
2022/06/12 07:29:00;;;;;;;5.72;2.40;;;27.10;92.50;;;;;;5069941;28;20041;-91
2022/06/12 07:31:50;;;;;;;4.13;1.85;;;27.40;89.20;;;;;;5074190;28;20052;-91
2022/06/12 07:34:38;;;;;;;6.75;2.10;;;27.60;89.10;;;;;;5070104;28;20108;-88
2022/06/12 07:37:26;;;;;;;5.82;1.95;;;28.40;84.50;;;;;;5085935;28;20109;-89
2022/06/12 07:40:22;;;;;;;5.43;1.83;;;28.50;74.50;;;;;;5072449;28;20033;-90
2022/06/12 07:43:09;;;;;;;6.03;1.80;;;28.40;71.50;;;;;;5063440;28;20064;-90
2022/06/12 07:45:57;;;;;;;3.63;1.70;;;28.90;73.50;;;;;;5080965;28;20112;-90
2022/06/12 07:48:46;;;;;;;4.03;1.50;;;28.70;67.20;;;;;;5063604;28;20444;-89
2022/06/12 07:51:37;;;;;;;4.43;2.25;;;28.70;70.40;;;;;;5068170;28;20151;-89
2022/06/12 07:54:25;;;;;;;3.60;1.42;;;29.10;68.00;;;;;;5058770;28;20074;-87
2022/06/12 07:57:12;;;;;;;5.30;1.80;;;29.50;68.30;;;;;;5063821;28;20112;-90
2022/06/12 08:00:04;;;;;;;1.95;1.35;;;29.70;64.10;;;;;;5069805;28;20044;-91
2022/06/12 08:02:52;;;;;;;5.22;1.48;;;29.90;62.90;;;;;;5065637;28;20148;-91
2022/06/12 08:05:41;;;;;;;4.93;1.67;;;30.20;69.20;;;;;;5062559;28;20630;-91
2022/06/12 08:08:31;;;;;;;4.05;1.20;;;31.20;62.80;;;;;;5074526;28;20127;-91
2022/06/12 08:11:22;;;;;;;4.68;1.90;;;31.80;61.50;;;;;;5063035;28;20123;-92
2022/06/12 08:14:10;;;;;;;2.35;1.25;;;32.20;59.50;;;;;;5061088;28;20048;-91
2022/06/12 08:16:58;;;;;;;4.07;1.85;;;32.50;54.70;;;;;;5059855;28;20535;-89
2022/06/12 08:23:37;;;;;;;3.22;1.60;;;31.20;56.00;;;;;;5075162;28;20125;-90
2022/06/12 08:26:26;;;;;;;3.63;1.67;;;31.70;55.30;;;;;;5064559;28;20032;-91
2022/06/12 08:29:17;;;;;;;2.65;1.40;;;31.60;49.30;;;;;;5060360;28;20055;-91
2022/06/12 08:32:16;;;;;;;8.93;2.13;;;30.50;51.90;;;;;;5055717;28;20130;-90
2022/06/12 08:35:09;;;;;;;3.80;1.75;;;29.60;52.00;;;;;;5079461;28;20044;-91
2022/06/12 08:37:58;;;;;;;4.03;1.70;;;30.00;56.90;;;;;;5061834;28;20049;-91
2022/06/12 08:40:52;;;;;;;3.20;1.63;;;31.00;53.20;;;;;;5061474;28;20044;-90
2022/06/12 08:44:03;;;;;;;3.53;1.33;;;31.60;50.40;;;;;;5060058;28;20136;-90
2022/06/12 08:47:01;;;;;;;3.60;1.60;;;31.90;48.50;;;;;;5058611;28;20162;-90
2022/06/12 08:50:09;;;;;;;7.05;2.28;;;31.20;49.20;;;;;;5079487;28;20059;-90
2022/06/12 08:53:19;;;;;;;3.60;1.55;;;30.90;48.90;;;;;;5075014;28;20048;-89
2022/06/12 08:56:22;;;;;;;5.68;2.00;;;30.40;48.60;;;;;;5069459;28;20129;-91
2022/06/12 08:59:29;;;;;;;3.30;1.50;;;30.50;49.20;;;;;;5058332;28;20087;-92
2022/06/12 09:02:29;;;;;;;3.42;1.50;;;31.80;53.10;;;;;;5071885;28;20385;-91
2022/06/12 09:05:21;;;;;;;3.90;1.73;;;32.70;48.00;;;;;;5060559;28;20100;-93
2022/06/12 09:08:27;;;;;;;2.10;1.50;;;33.30;48.30;;;;;;5062655;28;20118;-91
2022/06/12 09:11:30;;;;;;;1.63;1.33;;;33.60;47.30;;;;;;5058370;28;20116;-90
2022/06/12 09:14:41;;;;;;;4.68;1.63;;;33.40;45.10;;;;;;5072182;28;20045;-89
2022/06/12 09:17:56;;;;;;;3.28;1.23;;;32.90;43.40;;;;;;5075995;28;20052;-90
2022/06/12 09:21:08;;;;;;;4.53;1.67;;;32.40;49.10;;;;;;5077733;28;20327;-89
2022/06/12 09:24:13;;;;;;;;;;;31.80;45.60;;;;;;5079541;28;20064;-86
2022/06/12 09:27:11;;;;;;;3.85;1.60;;;31.30;46.70;;;;;;5070471;28;19931;-90
2022/06/12 09:30:16;;;;;;;4.32;1.50;;;31.30;46.20;;;;;;5068513;28;20044;-90
2022/06/12 09:33:29;;;;;;;2.55;1.40;;;31.90;48.70;;;;;;5071372;28;20445;-91
2022/06/12 09:36:41;;;;;;;3.67;1.40;;;32.80;48.90;;;;;;5060016;28;20052;-89
2022/06/12 09:39:47;;;;;;;4.30;1.38;;;33.70;40.80;;;;;;5068891;28;20094;-91
2022/06/12 09:43:19;;;;;;;3.72;1.40;;;33.50;43.90;;;;;;5079235;28;20040;-89
2022/06/12 09:46:21;;;;;;;2.58;1.30;;;33.20;45.90;;;;;;5064221;28;20070;-91
2022/06/12 09:49:29;;;;;;;2.58;1.33;;;33.90;43.10;;;;;;5069597;28;20601;-90
2022/06/12 09:52:40;;;;;;;5.40;1.50;;;34.20;38.60;;;;;;5075870;28;20169;-91
2022/06/12 09:55:36;;;;;;;3.67;1.67;;;33.60;41.80;;;;;;5051876;28;20071;-90
2022/06/12 09:58:38;;;;;;;2.92;1.25;;;33.00;43.90;;;;;;5064381;28;20113;-90
2022/06/12 10:01:36;;;;;;;2.67;1.38;;;33.80;44.20;;;;;;5081943;28;20055;-90
2022/06/12 10:04:54;;;;;;;3.78;1.58;;;33.60;40.70;;;;;;5058567;28;20453;-90
2022/06/12 10:08:16;;;;;;;3.05;1.23;;;33.20;44.20;;;;;;5062417;28;20076;-90
2022/06/12 10:11:27;;;;;;;2.63;1.08;;;34.20;43.90;;;;;;5061063;28;20343;-90
2022/06/12 10:14:17;;;;;;;6.83;1.60;;;35.50;40.00;;;;;;5073377;28;20047;-90
2022/06/12 10:17:07;;;;;;;2.53;1.60;;;34.50;39.60;;;;;;5073624;28;20044;-89
2022/06/12 10:20:02;;;;;;;6.72;1.60;;;33.00;41.50;;;;;;5100175;28;20110;-91
2022/06/12 10:22:52;;;;;;;3.13;1.40;;;32.90;41.90;;;;;;5078849;28;20044;-87
2022/06/12 10:25:52;;;;;;;3.90;1.23;;;33.10;41.60;;;;;;5094596;28;20032;-83
2022/06/12 10:28:44;;;;;;;3.67;1.33;;;33.80;42.00;;;;;;5083881;28;20052;-85
2022/06/12 10:31:36;;;;;;;2.85;1.35;;;33.70;40.80;;;;;;5068690;28;20036;-86
2022/06/12 10:34:30;;;;;;;;;;;34.00;45.10;;;;;;5079510;28;20144;-85
2022/06/12 10:37:29;;;;;;;3.05;1.20;;;35.30;42.50;;;;;;5083249;28;19908;-86
2022/06/12 10:40:22;;;;;;;6.30;1.70;;;36.40;39.20;;;;;;5087280;28;20036;-87
2022/06/12 10:43:23;;;;;;;2.90;1.50;;;36.00;39.00;;;;;;5085101;28;20090;-88
2022/06/12 10:46:13;;;;;;;;;;;35.40;37.70;;;;;;5071815;28;20044;-90
2022/06/12 10:49:05;;;;;;;4.78;1.40;;;35.90;40.10;;;;;;5078770;28;19920;-91
2022/06/12 10:52:12;;;;;;;4.78;1.58;;;36.40;40.30;;;;;;5068236;28;20055;-87
2022/06/12 10:55:01;;;;;;;3.03;1.10;;;36.50;39.60;;;;;;5071789;28;20055;-88
2022/06/12 10:57:57;;;;;;;3.90;1.50;;;37.10;35.50;;;;;;5072655;28;20049;-88
2022/06/12 11:00:49;;;;;;;2.92;1.58;;;36.30;38.10;;;;;;5069785;28;20314;-88
2022/06/12 11:03:51;;;;;;;1.83;1.27;;;37.00;38.00;;;;;;5042507;28;20048;-90
2022/06/12 11:06:53;;;;;;;2.67;1.30;;;35.80;36.90;;;;;;5071746;28;20120;-87
2022/06/12 11:09:49;;;;;;;2.47;1.40;;;34.50;39.30;;;;;;5073007;28;20056;-86
2022/06/12 11:12:45;;;;;;;2.72;1.20;;;35.00;42.10;;;;;;5053096;28;20365;-83
2022/06/12 11:15:47;;;;;;;2.72;1.23;;;35.30;38.20;;;;;;5070364;28;20041;-87
2022/06/12 11:19:10;;;;;;;3.28;1.23;;;36.00;37.40;;;;;;5055413;28;20434;-87
2022/06/12 11:22:22;;;;;;;3.70;1.33;;;37.10;40.00;;;;;;5071896;28;20051;-85
2022/06/12 11:25:19;;;;;;;;;;;37.10;35.20;;;;;;5047979;28;20496;-90
2022/06/12 11:28:06;;;;;;;3.05;1.30;;;37.50;34.80;;;;;;5077380;28;20333;-91
2022/06/12 11:31:26;;;;;;;2.55;1.55;;;38.20;35.90;;;;;;5058390;28;20041;-84
2022/06/12 11:34:55;;;;;;;2.92;1.30;;;37.90;36.00;;;;;;5062900;28;20079;-86
2022/06/12 11:38:13;;;;;;;3.08;1.20;;;38.20;36.10;;;;;;5061724;28;20032;-92
2022/06/12 11:41:22;;;;;;;1.42;0.90;;;38.10;32.90;;;;;;5058696;28;20461;-85
2022/06/12 11:45:02;;;;;;;;;;;;;;;;;;;;;
2022/06/12 11:51:21;;;;;;;3.13;1.23;;;39.30;34.00;;;;;;5573463;22;20107;-85
2022/06/12 11:54:44;;;;;;;3.05;1.00;;;37.60;33.50;;;;;;5078498;28;20090;-88
2022/06/12 12:12:19;;;;;;;3.47;1.13;;;37.00;35.30;;;;;;5064043;28;20393;-90
2022/06/12 12:15:21;;;;;;;2.17;1.33;;;37.60;32.00;;;;;;5059503;28;20041;-90
2022/06/12 12:18:21;;;;;;;2.13;1.13;;;38.20;32.90;;;;;;5061264;28;20044;-88
2022/06/12 12:21:19;;;;;;;2.58;1.15;;;38.00;29.30;;;;;;5050553;28;20041;-89
2022/06/12 12:24:13;;;;;;;3.00;1.42;;;37.00;30.00;;;;;;5044374;28;20033;-86
2022/06/12 12:27:05;;;;;;;3.30;1.92;;;36.00;32.60;;;;;;5060063;28;20059;-90
2022/06/12 12:29:55;;;;;;;4.30;1.38;;;34.60;34.60;;;;;;5037119;28;20335;-90
2022/06/12 12:32:42;;;;;;;4.03;1.52;;;34.30;38.50;;;;;;5037693;28;20065;-92
2022/06/12 12:42:00;;;;;;;3.33;1.48;;;34.60;41.10;;;;;;5045519;28;20100;-91
2022/06/12 12:44:49;;;;;;;3.55;1.95;;;34.50;42.60;;;;;;5053213;28;20076;-90
2022/06/12 12:47:38;;;;;;;4.18;1.80;;;33.90;40.90;;;;;;5042035;28;20465;-89
2022/06/12 12:50:26;;;;;;;6.00;2.20;;;32.80;43.80;;;;;;5036018;28;20159;-87
2022/06/12 12:53:25;;;;;;;3.88;1.70;;;32.10;45.10;;;;;;5056626;28;20374;-87
2022/06/12 12:56:15;;;;;;;3.47;1.55;;;31.40;45.70;;;;;;5033777;28;20394;-88
2022/06/12 12:59:09;;;;;;;2.20;1.52;;;30.90;46.40;;;;;;5055330;28;20130;-88
2022/06/12 13:01:57;;;;;;;3.03;1.70;;;30.70;47.90;;;;;;5054787;28;20406;-86
2022/06/12 13:04:47;;;;;;;1.83;1.50;;;31.80;45.10;;;;;;5053832;28;20482;-87
2022/06/12 13:07:53;;;;;;;4.70;1.73;;;33.10;42.10;;;;;;5031099;28;20124;-88
2022/06/12 13:11:02;;;;;;;3.55;1.52;;;34.10;40.80;;;;;;5051020;28;20045;-86
2022/06/12 13:13:57;;;;;;;6.95;1.80;;;35.50;42.10;;;;;;5049196;28;20454;-88
2022/06/12 13:17:16;;;;;;;3.40;1.48;;;36.40;39.00;;;;;;5052192;28;20063;-89
2022/06/12 13:20:30;;;;;;;3.30;1.60;;;36.10;38.40;;;;;;5054566;28;20057;-90
2022/06/12 13:23:20;;;;;;;2.83;1.40;;;36.00;34.40;;;;;;5053837;28;20138;-87
2022/06/12 13:26:14;;;;;;;3.58;1.60;;;35.90;37.30;;;;;;5041429;28;20056;-87
2022/06/12 13:29:05;;;;;;;4.10;1.50;;;35.20;40.70;;;;;;5037952;28;20037;-87
2022/06/12 13:32:05;;;;;;;4.10;1.60;;;33.80;41.10;;;;;;5052144;28;20049;-90
2022/06/12 13:35:03;;;;;;;2.80;1.70;;;32.30;44.20;;;;;;5053949;28;20059;-86
2022/06/12 13:37:58;;;;;;;2.55;1.85;;;31.50;46.30;;;;;;5049099;28;20053;-85
2022/06/12 13:41:05;;;;;;;6.15;1.92;;;30.70;47.10;;;;;;5041424;28;20451;-83
2022/06/12 13:43:55;;;;;;;4.85;2.10;;;30.20;48.10;;;;;;5051453;28;20432;-84
2022/06/12 13:46:47;;;;;;;3.85;1.60;;;30.00;48.80;;;;;;5031855;28;20037;-87
2022/06/12 13:49:44;;;;;;;4.45;1.60;;;30.60;48.20;;;;;;5049687;28;20053;-87
2022/06/12 13:52:43;;;;;;;2.75;1.48;;;30.40;48.90;;;;;;5054371;28;20049;-89
2022/06/12 13:55:47;;;;;;;8.52;2.22;;;30.30;49.30;;;;;;5034682;28;20045;-89
2022/06/12 13:58:39;;;;;;;4.20;1.88;;;30.90;50.00;;;;;;5054234;28;20163;-88
2022/06/12 14:01:33;;;;;;;4.22;1.73;;;32.20;48.60;;;;;;5046283;28;20067;-83
2022/06/12 14:04:32;;;;;;;3.38;1.55;;;32.80;45.30;;;;;;5042679;28;20048;-85
2022/06/12 14:07:20;;;;;;;6.32;2.38;;;32.10;44.70;;;;;;5048039;28;20045;-86
2022/06/12 14:10:23;;;;;;;5.20;2.20;;;31.60;45.50;;;;;;5049153;28;20053;-88
2022/06/12 14:13:23;;;;;;;6.03;2.00;;;31.40;47.30;;;;;;5045701;28;20724;-87
2022/06/12 14:16:17;;;;;;;4.10;1.85;;;31.70;47.00;;;;;;5052335;28;20056;-85
2022/06/12 14:19:07;;;;;;;3.67;1.65;;;31.60;47.10;;;;;;5036235;28;20045;-86
2022/06/12 14:22:06;;;;;;;5.18;1.90;;;31.00;47.50;;;;;;5051237;28;20041;-86
2022/06/12 14:25:15;;;;;;;2.05;1.60;;;31.10;48.00;;;;;;5045773;28;20054;-87
2022/06/12 14:28:23;;;;;;;1.90;1.70;;;31.40;49.00;;;;;;5053017;28;20127;-84
2022/06/12 14:31:16;;;;;;;3.95;1.98;;;31.10;47.50;;;;;;5037179;28;20044;-91
2022/06/12 14:34:24;;;;;;;5.32;1.95;;;30.70;48.50;;;;;;5046480;28;20052;-92
2022/06/12 14:37:35;;;;;;;3.20;1.77;;;31.00;49.00;;;;;;5038609;28;20033;-90
2022/06/12 14:40:29;;;;;;;3.22;1.92;;;31.60;50.00;;;;;;5032399;28;20033;-89
2022/06/12 14:43:16;;;;;;;6.05;1.67;;;32.00;44.80;;;;;;5046943;28;20052;-88
2022/06/12 14:46:16;;;;;;;4.45;2.00;;;32.20;47.80;;;;;;5058472;28;20088;-86
2022/06/12 14:49:23;;;;;;;3.15;1.60;;;32.30;45.60;;;;;;5056900;28;20114;-88
2022/06/12 14:52:21;;;;;;;4.53;1.90;;;32.00;45.80;;;;;;5032923;28;20045;-89
2022/06/12 14:55:11;;;;;;;4.50;1.83;;;31.70;47.90;;;;;;5043543;28;20041;-87
2022/06/12 14:57:59;;;;;;;3.33;1.98;;;31.50;47.70;;;;;;5051546;28;20075;-92
2022/06/12 15:00:46;;;;;;;4.32;2.45;;;31.70;46.60;;;;;;5056311;28;20040;-87
2022/06/12 15:03:43;;;;;;;5.35;2.45;;;31.70;50.10;;;;;;5039067;28;20069;-90
2022/06/12 15:06:32;;;;;;;6.78;2.67;;;31.80;45.60;;;;;;5054278;28;20049;-89
2022/06/12 15:09:29;;;;;;;7.13;2.72;;;31.60;46.80;;;;;;5050494;28;20041;-89
2022/06/12 15:12:22;;;;;;;4.15;2.22;;;31.60;46.50;;;;;;5051656;28;20115;-90
2022/06/12 15:15:24;;;;;;;7.18;2.67;;;31.40;47.40;;;;;;5055886;28;20144;-89
2022/06/12 15:18:17;;;;;;;4.72;2.42;;;31.20;47.20;;;;;;5048687;28;20041;-87
2022/06/12 15:21:19;;;;;;;2.95;1.98;;;30.80;47.90;;;;;;5054193;28;20072;-90
2022/06/12 15:24:20;;;;;;;6.95;2.25;;;30.40;48.40;;;;;;5051240;28;20037;-89
2022/06/12 15:30:21;;;;;;;2.92;1.92;;;30.30;49.40;;;;;;5066298;28;20083;-91
2022/06/12 15:33:10;;;;;;;6.57;2.13;;;30.40;52.10;;;;;;5054635;28;20048;-90
2022/06/12 15:35:59;;;;;;;3.17;1.80;;;30.10;49.50;;;;;;5073227;28;20048;-89
2022/06/12 15:38:47;;;;;;;5.07;2.42;;;29.70;49.40;;;;;;5047306;28;20049;-90
2022/06/12 15:41:36;;;;;;;6.03;1.77;;;29.70;48.50;;;;;;5047127;28;20373;-90
2022/06/12 15:44:25;;;;;;;7.25;2.20;;;29.80;50.20;;;;;;5053312;28;20045;-88
2022/06/12 15:47:15;;;;;;;4.50;1.88;;;29.80;53.10;;;;;;5041852;28;20095;-89
2022/06/12 15:50:02;;;;;;;3.13;1.80;;;29.60;50.90;;;;;;5051072;28;20112;-89
2022/06/12 15:52:51;;;;;;;5.03;1.90;;;29.50;51.90;;;;;;5058623;28;20114;-90
2022/06/12 15:55:39;;;;;;;4.90;2.08;;;29.40;50.50;;;;;;5059744;28;20048;-87
2022/06/12 15:58:26;;;;;;;5.00;2.03;;;29.20;50.40;;;;;;5058124;28;20086;-91
2022/06/12 16:01:19;;;;;;;3.28;2.10;;;28.90;51.10;;;;;;5055164;28;20417;-91
2022/06/12 16:04:06;;;;;;;4.10;1.95;;;28.80;53.80;;;;;;5049070;28;20049;-90
2022/06/12 16:06:54;;;;;;;5.55;2.00;;;28.50;51.90;;;;;;5043217;28;20187;-91
2022/06/12 16:09:41;;;;;;;3.60;1.70;;;28.40;51.20;;;;;;5065125;28;20379;-89
2022/06/12 16:12:30;;;;;;;3.72;1.85;;;28.20;53.00;;;;;;5044686;28;20129;-90
2022/06/12 16:15:21;;;;;;;4.22;1.88;;;28.30;52.70;;;;;;5060450;28;20055;-91
2022/06/12 16:18:09;;;;;;;5.55;1.48;;;28.40;50.90;;;;;;5054722;28;20041;-89
2022/06/12 16:20:56;;;;;;;3.28;1.60;;;28.30;48.20;;;;;;5056757;28;20045;-91
2022/06/12 16:23:45;;;;;;;2.38;1.40;;;28.20;51.10;;;;;;5056035;28;20045;-91
2022/06/12 16:26:33;;;;;;;2.38;1.48;;;28.20;50.30;;;;;;5060390;28;20045;-92
2022/06/12 16:29:22;;;;;;;3.17;1.85;;;28.00;48.60;;;;;;5058992;28;20407;-92